sensor_id;sensor_type;location;lat;lon;timestamp;temperature;humidity
72905;DHT22;61048;52.162;4.516;2023-04-03T00:00:48;14.90;54.00
72905;DHT22;61048;52.162;4.516;2023-04-03T00:03:16;14.90;54.20
72905;DHT22;61048;52.162;4.516;2023-04-03T00:05:43;14.90;53.80
72905;DHT22;61048;52.162;4.516;2023-04-03T00:08:11;14.90;54.10
72905;DHT22;61048;52.162;4.516;2023-04-03T00:10:38;14.90;54.00
72905;DHT22;61048;52.162;4.516;2023-04-03T00:13:06;14.90;54.00
72905;DHT22;61048;52.162;4.516;2023-04-03T00:15:34;14.90;54.20
72905;DHT22;61048;52.162;4.516;2023-04-03T00:18:01;14.90;54.20
72905;DHT22;61048;52.162;4.516;2023-04-03T00:20:27;14.90;53.80
72905;DHT22;61048;52.162;4.516;2023-04-03T00:22:54;14.80;53.70
72905;DHT22;61048;52.162;4.516;2023-04-03T00:25:23;14.80;53.60
72905;DHT22;61048;52.162;4.516;2023-04-03T00:27:50;14.80;53.40
72905;DHT22;61048;52.162;4.516;2023-04-03T00:30:19;14.80;53.50
72905;DHT22;61048;52.162;4.516;2023-04-03T00:32:47;14.80;53.80
72905;DHT22;61048;52.162;4.516;2023-04-03T00:35:14;14.80;53.80
72905;DHT22;61048;52.162;4.516;2023-04-03T00:37:42;14.80;53.70
72905;DHT22;61048;52.162;4.516;2023-04-03T00:40:10;14.80;53.50
72905;DHT22;61048;52.162;4.516;2023-04-03T00:42:40;14.80;53.70
72905;DHT22;61048;52.162;4.516;2023-04-03T00:45:25;14.80;53.60
72905;DHT22;61048;52.162;4.516;2023-04-03T00:47:53;14.80;53.80
72905;DHT22;61048;52.162;4.516;2023-04-03T00:50:21;14.80;53.80
72905;DHT22;61048;52.162;4.516;2023-04-03T00:52:48;14.80;54.00
72905;DHT22;61048;52.162;4.516;2023-04-03T00:55:16;14.80;54.00
72905;DHT22;61048;52.162;4.516;2023-04-03T00:57:45;14.80;54.00
72905;DHT22;61048;52.162;4.516;2023-04-03T01:00:16;14.70;53.60
72905;DHT22;61048;52.162;4.516;2023-04-03T01:02:43;14.70;53.90
72905;DHT22;61048;52.162;4.516;2023-04-03T01:05:10;14.70;53.80
72905;DHT22;61048;52.162;4.516;2023-04-03T01:07:38;14.70;53.80
72905;DHT22;61048;52.162;4.516;2023-04-03T01:10:09;14.70;53.90
72905;DHT22;61048;52.162;4.516;2023-04-03T01:12:40;14.70;53.70
72905;DHT22;61048;52.162;4.516;2023-04-03T01:15:12;14.70;53.80
72905;DHT22;61048;52.162;4.516;2023-04-03T01:17:40;14.70;53.90
72905;DHT22;61048;52.162;4.516;2023-04-03T01:23:22;14.70;54.20
72905;DHT22;61048;52.162;4.516;2023-04-03T01:25:53;14.60;54.20
72905;DHT22;61048;52.162;4.516;2023-04-03T01:28:24;14.70;54.10
72905;DHT22;61048;52.162;4.516;2023-04-03T01:30:59;14.70;54.20
72905;DHT22;61048;52.162;4.516;2023-04-03T01:33:29;14.70;54.20
72905;DHT22;61048;52.162;4.516;2023-04-03T01:35:55;14.60;54.10
72905;DHT22;61048;52.162;4.516;2023-04-03T01:38:23;14.60;54.30
72905;DHT22;61048;52.162;4.516;2023-04-03T01:40:50;14.70;54.20
72905;DHT22;61048;52.162;4.516;2023-04-03T01:43:16;14.60;54.20
72905;DHT22;61048;52.162;4.516;2023-04-03T01:45:43;14.60;54.20
72905;DHT22;61048;52.162;4.516;2023-04-03T01:48:12;14.60;54.30
72905;DHT22;61048;52.162;4.516;2023-04-03T01:50:41;14.70;54.50
72905;DHT22;61048;52.162;4.516;2023-04-03T01:53:08;14.70;54.50
72905;DHT22;61048;52.162;4.516;2023-04-03T01:55:35;14.70;54.60
72905;DHT22;61048;52.162;4.516;2023-04-03T01:58:01;14.60;54.80
72905;DHT22;61048;52.162;4.516;2023-04-03T02:00:28;14.70;54.60
72905;DHT22;61048;52.162;4.516;2023-04-03T02:02:56;14.70;54.70
72905;DHT22;61048;52.162;4.516;2023-04-03T02:05:24;14.70;54.90
72905;DHT22;61048;52.162;4.516;2023-04-03T02:07:52;14.60;55.10
72905;DHT22;61048;52.162;4.516;2023-04-03T02:10:19;14.60;55.00
72905;DHT22;61048;52.162;4.516;2023-04-03T02:12:46;14.70;55.20
72905;DHT22;61048;52.162;4.516;2023-04-03T02:15:13;14.70;55.10
72905;DHT22;61048;52.162;4.516;2023-04-03T02:17:40;14.70;55.10
72905;DHT22;61048;52.162;4.516;2023-04-03T02:20:08;14.70;55.10
72905;DHT22;61048;52.162;4.516;2023-04-03T02:22:35;14.70;55.60
72905;DHT22;61048;52.162;4.516;2023-04-03T02:25:04;14.70;55.60
72905;DHT22;61048;52.162;4.516;2023-04-03T02:27:31;14.70;55.70
72905;DHT22;61048;52.162;4.516;2023-04-03T02:29:58;14.70;55.60
72905;DHT22;61048;52.162;4.516;2023-04-03T02:32:25;14.70;55.80
72905;DHT22;61048;52.162;4.516;2023-04-03T02:34:52;14.70;56.00
72905;DHT22;61048;52.162;4.516;2023-04-03T02:37:18;14.70;55.90
72905;DHT22;61048;52.162;4.516;2023-04-03T02:39:46;14.70;56.10
72905;DHT22;61048;52.162;4.516;2023-04-03T02:42:14;14.70;56.10
72905;DHT22;61048;52.162;4.516;2023-04-03T02:44:41;14.70;56.50
72905;DHT22;61048;52.162;4.516;2023-04-03T02:47:08;14.70;56.60
72905;DHT22;61048;52.162;4.516;2023-04-03T02:49:35;14.70;56.50
72905;DHT22;61048;52.162;4.516;2023-04-03T02:52:02;14.70;56.70
72905;DHT22;61048;52.162;4.516;2023-04-03T02:54:28;14.70;56.70
72905;DHT22;61048;52.162;4.516;2023-04-03T02:56:56;14.70;57.00
72905;DHT22;61048;52.162;4.516;2023-04-03T02:59:25;14.70;57.00
72905;DHT22;61048;52.162;4.516;2023-04-03T03:01:52;14.70;57.20
72905;DHT22;61048;52.162;4.516;2023-04-03T03:04:19;14.70;57.20
72905;DHT22;61048;52.162;4.516;2023-04-03T03:06:46;14.70;57.20
72905;DHT22;61048;52.162;4.516;2023-04-03T03:09:13;14.70;57.20
72905;DHT22;61048;52.162;4.516;2023-04-03T03:11:40;14.70;57.20
72905;DHT22;61048;52.162;4.516;2023-04-03T03:14:07;14.70;57.20
72905;DHT22;61048;52.162;4.516;2023-04-03T03:16:35;14.70;57.30
72905;DHT22;61048;52.162;4.516;2023-04-03T03:19:02;14.70;57.30
72905;DHT22;61048;52.162;4.516;2023-04-03T03:21:29;14.70;57.10
72905;DHT22;61048;52.162;4.516;2023-04-03T03:23:55;14.70;57.20
72905;DHT22;61048;52.162;4.516;2023-04-03T03:26:22;14.70;57.10
72905;DHT22;61048;52.162;4.516;2023-04-03T03:28:49;14.70;57.10
72905;DHT22;61048;52.162;4.516;2023-04-03T03:31:16;14.70;56.90
72905;DHT22;61048;52.162;4.516;2023-04-03T03:33:44;14.60;56.50
72905;DHT22;61048;52.162;4.516;2023-04-03T03:36:11;14.60;56.80
72905;DHT22;61048;52.162;4.516;2023-04-03T03:38:38;14.60;56.70
72905;DHT22;61048;52.162;4.516;2023-04-03T03:41:05;14.60;56.60
72905;DHT22;61048;52.162;4.516;2023-04-03T03:43:32;14.60;56.70
72905;DHT22;61048;52.162;4.516;2023-04-03T03:45:59;14.60;56.80
72905;DHT22;61048;52.162;4.516;2023-04-03T03:48:26;14.60;56.50
72905;DHT22;61048;52.162;4.516;2023-04-03T03:50:54;14.60;56.80
72905;DHT22;61048;52.162;4.516;2023-04-03T03:53:21;14.60;56.60
72905;DHT22;61048;52.162;4.516;2023-04-03T03:55:48;14.60;56.60
72905;DHT22;61048;52.162;4.516;2023-04-03T03:58:15;14.60;56.60
72905;DHT22;61048;52.162;4.516;2023-04-03T04:00:41;14.60;56.50
72905;DHT22;61048;52.162;4.516;2023-04-03T04:03:08;14.60;56.40
72905;DHT22;61048;52.162;4.516;2023-04-03T04:05:35;14.60;56.50
72905;DHT22;61048;52.162;4.516;2023-04-03T04:08:04;14.60;56.40
72905;DHT22;61048;52.162;4.516;2023-04-03T04:10:30;14.50;56.50
72905;DHT22;61048;52.162;4.516;2023-04-03T04:12:57;14.50;56.20
72905;DHT22;61048;52.162;4.516;2023-04-03T04:15:25;14.50;56.10
72905;DHT22;61048;52.162;4.516;2023-04-03T04:17:52;14.50;56.40
72905;DHT22;61048;52.162;4.516;2023-04-03T04:20:19;14.50;56.40
72905;DHT22;61048;52.162;4.516;2023-04-03T04:22:46;14.50;56.40
72905;DHT22;61048;52.162;4.516;2023-04-03T04:25:14;14.50;56.40
72905;DHT22;61048;52.162;4.516;2023-04-03T04:27:41;14.50;56.40
72905;DHT22;61048;52.162;4.516;2023-04-03T04:30:10;14.50;56.50
72905;DHT22;61048;52.162;4.516;2023-04-03T04:32:37;14.50;56.50
72905;DHT22;61048;52.162;4.516;2023-04-03T04:35:04;14.50;56.70
72905;DHT22;61048;52.162;4.516;2023-04-03T04:37:31;14.50;56.80
72905;DHT22;61048;52.162;4.516;2023-04-03T04:39:58;14.50;56.60
72905;DHT22;61048;52.162;4.516;2023-04-03T04:42:26;14.50;56.70
72905;DHT22;61048;52.162;4.516;2023-04-03T04:44:53;14.50;56.60
72905;DHT22;61048;52.162;4.516;2023-04-03T04:47:20;14.50;56.20
72905;DHT22;61048;52.162;4.516;2023-04-03T04:49:47;14.50;56.00
72905;DHT22;61048;52.162;4.516;2023-04-03T04:52:14;14.40;56.10
72905;DHT22;61048;52.162;4.516;2023-04-03T04:54:41;14.40;55.80
72905;DHT22;61048;52.162;4.516;2023-04-03T04:57:08;14.40;55.40
72905;DHT22;61048;52.162;4.516;2023-04-03T04:59:37;14.50;58.20
72905;DHT22;61048;52.162;4.516;2023-04-03T05:02:04;14.60;60.30
72905;DHT22;61048;52.162;4.516;2023-04-03T05:04:32;14.70;60.00
72905;DHT22;61048;52.162;4.516;2023-04-03T05:07:00;14.80;60.00
72905;DHT22;61048;52.162;4.516;2023-04-03T05:09:27;14.80;60.00
72905;DHT22;61048;52.162;4.516;2023-04-03T05:11:54;14.90;60.40
72905;DHT22;61048;52.162;4.516;2023-04-03T05:14:21;14.90;60.60
72905;DHT22;61048;52.162;4.516;2023-04-03T05:16:50;14.90;60.20
72905;DHT22;61048;52.162;4.516;2023-04-03T05:19:18;14.90;60.20
72905;DHT22;61048;52.162;4.516;2023-04-03T05:21:45;14.90;60.20
72905;DHT22;61048;52.162;4.516;2023-04-03T05:24:12;14.90;60.20
72905;DHT22;61048;52.162;4.516;2023-04-03T05:26:40;14.90;60.20
72905;DHT22;61048;52.162;4.516;2023-04-03T05:29:07;15.00;60.10
72905;DHT22;61048;52.162;4.516;2023-04-03T05:31:34;15.00;59.90
72905;DHT22;61048;52.162;4.516;2023-04-03T05:34:02;15.00;60.10
72905;DHT22;61048;52.162;4.516;2023-04-03T05:36:29;15.00;59.90
72905;DHT22;61048;52.162;4.516;2023-04-03T05:38:56;15.00;59.60
72905;DHT22;61048;52.162;4.516;2023-04-03T05:41:23;15.00;59.80
72905;DHT22;61048;52.162;4.516;2023-04-03T05:43:50;15.00;59.90
72905;DHT22;61048;52.162;4.516;2023-04-03T05:46:19;15.10;59.60
72905;DHT22;61048;52.162;4.516;2023-04-03T05:48:47;15.20;59.50
72905;DHT22;61048;52.162;4.516;2023-04-03T05:51:18;15.20;59.30
72905;DHT22;61048;52.162;4.516;2023-04-03T05:53:45;15.20;58.70
72905;DHT22;61048;52.162;4.516;2023-04-03T05:56:13;15.10;58.00
72905;DHT22;61048;52.162;4.516;2023-04-03T05:58:40;15.10;57.60
72905;DHT22;61048;52.162;4.516;2023-04-03T06:01:07;15.00;57.20
72905;DHT22;61048;52.162;4.516;2023-04-03T06:03:33;15.00;55.60
72905;DHT22;61048;52.162;4.516;2023-04-03T06:06:03;15.20;59.20
72905;DHT22;61048;52.162;4.516;2023-04-03T06:08:32;15.30;60.10
72905;DHT22;61048;52.162;4.516;2023-04-03T06:11:00;15.50;59.80
72905;DHT22;61048;52.162;4.516;2023-04-03T06:13:27;15.70;59.60
72905;DHT22;61048;52.162;4.516;2023-04-03T06:15:55;15.90;59.60
72905;DHT22;61048;52.162;4.516;2023-04-03T06:18:22;16.00;59.60
72905;DHT22;61048;52.162;4.516;2023-04-03T06:20:49;16.10;59.50
72905;DHT22;61048;52.162;4.516;2023-04-03T06:23:16;16.20;59.10
72905;DHT22;61048;52.162;4.516;2023-04-03T06:25:44;16.40;59.30
72905;DHT22;61048;52.162;4.516;2023-04-03T06:28:11;16.40;58.10
72905;DHT22;61048;52.162;4.516;2023-04-03T06:30:38;16.50;57.70
72905;DHT22;61048;52.162;4.516;2023-04-03T06:33:05;16.50;57.20
72905;DHT22;61048;52.162;4.516;2023-04-03T06:35:32;16.50;56.70
72905;DHT22;61048;52.162;4.516;2023-04-03T06:38:02;16.60;57.00
72905;DHT22;61048;52.162;4.516;2023-04-03T06:40:30;16.60;56.60
72905;DHT22;61048;52.162;4.516;2023-04-03T06:42:58;16.70;55.80
72905;DHT22;61048;52.162;4.516;2023-04-03T06:45:25;16.80;55.70
72905;DHT22;61048;52.162;4.516;2023-04-03T06:47:53;16.80;55.30
72905;DHT22;61048;52.162;4.516;2023-04-03T06:50:20;16.90;54.80
72905;DHT22;61048;52.162;4.516;2023-04-03T06:52:47;17.00;54.40
72905;DHT22;61048;52.162;4.516;2023-04-03T06:55:14;17.00;54.10
72905;DHT22;61048;52.162;4.516;2023-04-03T06:57:40;17.10;54.10
72905;DHT22;61048;52.162;4.516;2023-04-03T07:00:11;17.10;53.60
72905;DHT22;61048;52.162;4.516;2023-04-03T07:02:38;17.20;53.60
72905;DHT22;61048;52.162;4.516;2023-04-03T07:05:06;17.20;53.40
72905;DHT22;61048;52.162;4.516;2023-04-03T07:07:34;17.30;52.80
72905;DHT22;61048;52.162;4.516;2023-04-03T07:10:01;17.30;52.70
72905;DHT22;61048;52.162;4.516;2023-04-03T07:12:28;17.30;52.00
72905;DHT22;61048;52.162;4.516;2023-04-03T07:14:55;17.40;52.10
72905;DHT22;61048;52.162;4.516;2023-04-03T07:17:23;17.50;51.70
72905;DHT22;61048;52.162;4.516;2023-04-03T07:19:50;17.60;51.50
72905;DHT22;61048;52.162;4.516;2023-04-03T07:22:17;17.70;51.50
72905;DHT22;61048;52.162;4.516;2023-04-03T07:24:45;17.70;51.00
72905;DHT22;61048;52.162;4.516;2023-04-03T07:27:12;17.70;50.00
72905;DHT22;61048;52.162;4.516;2023-04-03T07:29:39;17.70;50.00
72905;DHT22;61048;52.162;4.516;2023-04-03T07:32:06;17.80;50.70
72905;DHT22;61048;52.162;4.516;2023-04-03T07:34:34;17.80;50.30
72905;DHT22;61048;52.162;4.516;2023-04-03T07:37:01;17.90;50.50
72905;DHT22;61048;52.162;4.516;2023-04-03T07:39:28;17.90;50.20
72905;DHT22;61048;52.162;4.516;2023-04-03T07:41:55;18.00;48.80
72905;DHT22;61048;52.162;4.516;2023-04-03T07:44:22;18.00;49.10
72905;DHT22;61048;52.162;4.516;2023-04-03T07:46:49;18.00;49.60
72905;DHT22;61048;52.162;4.516;2023-04-03T07:49:16;18.10;49.40
72905;DHT22;61048;52.162;4.516;2023-04-03T07:51:45;18.10;48.90
72905;DHT22;61048;52.162;4.516;2023-04-03T07:54:12;18.20;48.00
72905;DHT22;61048;52.162;4.516;2023-04-03T07:56:39;18.30;48.30
72905;DHT22;61048;52.162;4.516;2023-04-03T07:59:05;18.40;47.70
72905;DHT22;61048;52.162;4.516;2023-04-03T08:01:33;18.40;48.00
72905;DHT22;61048;52.162;4.516;2023-04-03T08:04:00;18.50;48.10
72905;DHT22;61048;52.162;4.516;2023-04-03T08:06:27;18.50;48.00
72905;DHT22;61048;52.162;4.516;2023-04-03T08:08:57;18.50;47.40
72905;DHT22;61048;52.162;4.516;2023-04-03T08:11:24;18.50;47.30
72905;DHT22;61048;52.162;4.516;2023-04-03T08:13:53;18.40;46.40
72905;DHT22;61048;52.162;4.516;2023-04-03T08:16:22;18.30;46.60
72905;DHT22;61048;52.162;4.516;2023-04-03T08:18:51;18.20;46.50
72905;DHT22;61048;52.162;4.516;2023-04-03T08:21:18;18.10;47.00
72905;DHT22;61048;52.162;4.516;2023-04-03T08:23:47;18.10;46.60
72905;DHT22;61048;52.162;4.516;2023-04-03T08:26:17;18.10;47.50
72905;DHT22;61048;52.162;4.516;2023-04-03T08:28:44;18.10;47.20
72905;DHT22;61048;52.162;4.516;2023-04-03T08:31:13;18.20;46.40
72905;DHT22;61048;52.162;4.516;2023-04-03T08:33:40;18.20;46.80
72905;DHT22;61048;52.162;4.516;2023-04-03T08:36:17;18.10;46.00
72905;DHT22;61048;52.162;4.516;2023-04-03T08:38:44;18.10;46.80
72905;DHT22;61048;52.162;4.516;2023-04-03T08:41:16;18.20;46.30
72905;DHT22;61048;52.162;4.516;2023-04-03T08:43:56;18.10;46.60
72905;DHT22;61048;52.162;4.516;2023-04-03T08:46:29;18.10;46.10
72905;DHT22;61048;52.162;4.516;2023-04-03T08:49:00;18.10;45.40
72905;DHT22;61048;52.162;4.516;2023-04-03T08:51:27;18.10;45.30
72905;DHT22;61048;52.162;4.516;2023-04-03T08:53:59;18.10;45.90
72905;DHT22;61048;52.162;4.516;2023-04-03T08:56:29;18.10;46.50
72905;DHT22;61048;52.162;4.516;2023-04-03T08:58:59;18.00;45.90
72905;DHT22;61048;52.162;4.516;2023-04-03T09:01:29;18.10;45.10
72905;DHT22;61048;52.162;4.516;2023-04-03T09:04:00;18.00;46.20
72905;DHT22;61048;52.162;4.516;2023-04-03T09:06:31;18.00;45.80
72905;DHT22;61048;52.162;4.516;2023-04-03T09:09:08;18.00;45.60
72905;DHT22;61048;52.162;4.516;2023-04-03T09:11:47;18.00;45.70
72905;DHT22;61048;52.162;4.516;2023-04-03T09:14:22;17.90;45.60
72905;DHT22;61048;52.162;4.516;2023-04-03T09:16:55;17.90;45.30
72905;DHT22;61048;52.162;4.516;2023-04-03T09:19:30;18.00;45.60
72905;DHT22;61048;52.162;4.516;2023-04-03T09:22:03;17.90;45.50
72905;DHT22;61048;52.162;4.516;2023-04-03T09:24:36;17.90;44.80
72905;DHT22;61048;52.162;4.516;2023-04-03T09:27:09;17.90;45.00
72905;DHT22;61048;52.162;4.516;2023-04-03T09:29:39;17.90;45.00
72905;DHT22;61048;52.162;4.516;2023-04-03T09:32:18;17.90;44.60
72905;DHT22;61048;52.162;4.516;2023-04-03T09:34:47;17.90;44.90
72905;DHT22;61048;52.162;4.516;2023-04-03T09:37:34;17.90;44.50
72905;DHT22;61048;52.162;4.516;2023-04-03T09:40:02;17.80;44.30
72905;DHT22;61048;52.162;4.516;2023-04-03T09:42:32;17.80;44.00
72905;DHT22;61048;52.162;4.516;2023-04-03T09:45:00;17.80;44.40
72905;DHT22;61048;52.162;4.516;2023-04-03T09:47:29;17.80;44.20
72905;DHT22;61048;52.162;4.516;2023-04-03T09:50:17;17.80;43.80
72905;DHT22;61048;52.162;4.516;2023-04-03T09:52:46;17.70;43.90
72905;DHT22;61048;52.162;4.516;2023-04-03T09:55:15;17.70;43.70
72905;DHT22;61048;52.162;4.516;2023-04-03T09:57:43;17.70;43.50
72905;DHT22;61048;52.162;4.516;2023-04-03T10:00:20;17.70;43.60
72905;DHT22;61048;52.162;4.516;2023-04-03T10:02:51;17.70;43.50
72905;DHT22;61048;52.162;4.516;2023-04-03T10:05:28;17.60;43.60
72905;DHT22;61048;52.162;4.516;2023-04-03T10:08:08;17.60;43.00
72905;DHT22;61048;52.162;4.516;2023-04-03T10:10:35;17.50;42.80
72905;DHT22;61048;52.162;4.516;2023-04-03T10:13:06;17.50;42.90
72905;DHT22;61048;52.162;4.516;2023-04-03T10:15:38;17.50;42.60
72905;DHT22;61048;52.162;4.516;2023-04-03T10:18:20;17.40;42.60
72905;DHT22;61048;52.162;4.516;2023-04-03T10:20:52;17.40;42.40
72905;DHT22;61048;52.162;4.516;2023-04-03T10:23:23;17.40;42.60
72905;DHT22;61048;52.162;4.516;2023-04-03T10:26:01;17.40;42.40
72905;DHT22;61048;52.162;4.516;2023-04-03T10:28:40;17.30;42.10
72905;DHT22;61048;52.162;4.516;2023-04-03T10:31:13;17.20;41.90
72905;DHT22;61048;52.162;4.516;2023-04-03T10:33:59;17.20;42.10
72905;DHT22;61048;52.162;4.516;2023-04-03T10:36:35;17.20;41.80
72905;DHT22;61048;52.162;4.516;2023-04-03T10:39:12;17.20;42.00
72905;DHT22;61048;52.162;4.516;2023-04-03T10:41:51;17.10;41.90
72905;DHT22;61048;52.162;4.516;2023-04-03T10:44:31;17.10;42.20
72905;DHT22;61048;52.162;4.516;2023-04-03T10:47:02;17.10;41.90
72905;DHT22;61048;52.162;4.516;2023-04-03T10:49:40;17.00;41.30
72905;DHT22;61048;52.162;4.516;2023-04-03T10:52:17;17.00;41.50
72905;DHT22;61048;52.162;4.516;2023-04-03T10:54:52;17.00;41.30
72905;DHT22;61048;52.162;4.516;2023-04-03T10:57:23;16.90;41.40
72905;DHT22;61048;52.162;4.516;2023-04-03T10:59:56;16.90;40.80
72905;DHT22;61048;52.162;4.516;2023-04-03T11:02:26;16.80;41.10
72905;DHT22;61048;52.162;4.516;2023-04-03T11:04:59;16.90;41.30
72905;DHT22;61048;52.162;4.516;2023-04-03T11:07:31;16.80;40.80
72905;DHT22;61048;52.162;4.516;2023-04-03T11:10:05;16.80;41.20
72905;DHT22;61048;52.162;4.516;2023-04-03T11:12:40;16.80;41.30
72905;DHT22;61048;52.162;4.516;2023-04-03T11:15:14;16.80;41.30
72905;DHT22;61048;52.162;4.516;2023-04-03T11:17:45;16.80;40.80
72905;DHT22;61048;52.162;4.516;2023-04-03T11:20:17;16.70;40.40
72905;DHT22;61048;52.162;4.516;2023-04-03T11:22:50;16.70;40.50
72905;DHT22;61048;52.162;4.516;2023-04-03T11:25:20;16.70;40.80
72905;DHT22;61048;52.162;4.516;2023-04-03T11:27:51;16.70;40.60
72905;DHT22;61048;52.162;4.516;2023-04-03T11:30:27;16.60;40.30
72905;DHT22;61048;52.162;4.516;2023-04-03T11:33:28;16.60;40.10
72905;DHT22;61048;52.162;4.516;2023-04-03T11:36:02;16.60;40.50
72905;DHT22;61048;52.162;4.516;2023-04-03T11:38:32;16.60;40.80
72905;DHT22;61048;52.162;4.516;2023-04-03T11:41:01;16.60;40.60
72905;DHT22;61048;52.162;4.516;2023-04-03T11:43:30;16.60;39.70
72905;DHT22;61048;52.162;4.516;2023-04-03T11:46:00;16.60;40.20
72905;DHT22;61048;52.162;4.516;2023-04-03T11:48:50;16.50;40.10
72905;DHT22;61048;52.162;4.516;2023-04-03T11:51:42;16.50;40.50
72905;DHT22;61048;52.162;4.516;2023-04-03T11:54:46;16.50;39.70
72905;DHT22;61048;52.162;4.516;2023-04-03T12:00:47;16.50;40.10
72905;DHT22;61048;52.162;4.516;2023-04-03T12:04:05;16.50;40.10
72905;DHT22;61048;52.162;4.516;2023-04-03T12:10:13;16.40;39.80
72905;DHT22;61048;52.162;4.516;2023-04-03T12:12:42;16.40;40.00
72905;DHT22;61048;52.162;4.516;2023-04-03T12:15:44;16.40;40.40
72905;DHT22;61048;52.162;4.516;2023-04-03T12:19:01;16.40;39.70
72905;DHT22;61048;52.162;4.516;2023-04-03T12:22:09;16.40;39.70
72905;DHT22;61048;52.162;4.516;2023-04-03T12:24:37;16.40;38.80
72905;DHT22;61048;52.162;4.516;2023-04-03T12:27:25;16.40;39.30
72905;DHT22;61048;52.162;4.516;2023-04-03T12:29:58;16.40;39.80
72905;DHT22;61048;52.162;4.516;2023-04-03T12:32:41;16.40;39.30
72905;DHT22;61048;52.162;4.516;2023-04-03T12:35:14;16.40;39.90
72905;DHT22;61048;52.162;4.516;2023-04-03T12:37:56;16.40;39.50
72905;DHT22;61048;52.162;4.516;2023-04-03T12:40:31;16.40;39.60
72905;DHT22;61048;52.162;4.516;2023-04-03T12:43:18;16.40;39.30
72905;DHT22;61048;52.162;4.516;2023-04-03T12:45:52;16.40;39.70
72905;DHT22;61048;52.162;4.516;2023-04-03T12:48:26;16.40;39.80
72905;DHT22;61048;52.162;4.516;2023-04-03T12:50:56;16.40;38.70
72905;DHT22;61048;52.162;4.516;2023-04-03T12:53:25;16.40;38.80
72905;DHT22;61048;52.162;4.516;2023-04-03T12:55:56;16.40;39.50
72905;DHT22;61048;52.162;4.516;2023-04-03T12:58:26;16.40;39.30
72905;DHT22;61048;52.162;4.516;2023-04-03T13:01:01;16.40;39.30
72905;DHT22;61048;52.162;4.516;2023-04-03T13:03:29;16.40;39.10
72905;DHT22;61048;52.162;4.516;2023-04-03T13:06:00;16.40;38.90
72905;DHT22;61048;52.162;4.516;2023-04-03T13:08:29;16.40;39.30
72905;DHT22;61048;52.162;4.516;2023-04-03T13:10:59;16.40;39.40
72905;DHT22;61048;52.162;4.516;2023-04-03T13:13:28;16.40;39.50
72905;DHT22;61048;52.162;4.516;2023-04-03T13:15:55;16.50;39.50
72905;DHT22;61048;52.162;4.516;2023-04-03T13:18:28;16.50;39.40
72905;DHT22;61048;52.162;4.516;2023-04-03T13:21:02;16.50;39.10
72905;DHT22;61048;52.162;4.516;2023-04-03T13:23:30;16.50;39.00
72905;DHT22;61048;52.162;4.516;2023-04-03T13:25:59;16.50;39.30
72905;DHT22;61048;52.162;4.516;2023-04-03T13:28:30;16.50;39.30
72905;DHT22;61048;52.162;4.516;2023-04-03T13:31:14;16.50;39.50
72905;DHT22;61048;52.162;4.516;2023-04-03T13:33:54;16.60;39.50
72905;DHT22;61048;52.162;4.516;2023-04-03T13:36:26;16.50;39.60
72905;DHT22;61048;52.162;4.516;2023-04-03T13:39:06;16.60;38.90
72905;DHT22;61048;52.162;4.516;2023-04-03T13:41:35;16.60;39.20
72905;DHT22;61048;52.162;4.516;2023-04-03T13:44:27;16.60;39.20
72905;DHT22;61048;52.162;4.516;2023-04-03T13:46:56;16.60;38.80
72905;DHT22;61048;52.162;4.516;2023-04-03T13:49:33;16.60;39.30
72905;DHT22;61048;52.162;4.516;2023-04-03T13:52:20;16.60;39.30
72905;DHT22;61048;52.162;4.516;2023-04-03T13:54:52;16.70;39.20
72905;DHT22;61048;52.162;4.516;2023-04-03T13:57:21;16.70;38.80
72905;DHT22;61048;52.162;4.516;2023-04-03T13:59:48;16.70;38.90
72905;DHT22;61048;52.162;4.516;2023-04-03T14:02:20;16.70;39.00
72905;DHT22;61048;52.162;4.516;2023-04-03T14:04:52;16.70;38.80
72905;DHT22;61048;52.162;4.516;2023-04-03T14:07:23;16.70;38.60
72905;DHT22;61048;52.162;4.516;2023-04-03T14:09:50;16.70;38.40
72905;DHT22;61048;52.162;4.516;2023-04-03T14:12:21;16.70;38.30
72905;DHT22;61048;52.162;4.516;2023-04-03T14:14:51;16.70;38.30
72905;DHT22;61048;52.162;4.516;2023-04-03T14:17:20;16.70;38.20
72905;DHT22;61048;52.162;4.516;2023-04-03T14:19:49;16.70;38.10
72905;DHT22;61048;52.162;4.516;2023-04-03T14:22:18;16.70;38.20
72905;DHT22;61048;52.162;4.516;2023-04-03T14:24:48;16.70;38.20
72905;DHT22;61048;52.162;4.516;2023-04-03T14:27:19;16.70;38.10
72905;DHT22;61048;52.162;4.516;2023-04-03T14:29:46;16.80;38.30
72905;DHT22;61048;52.162;4.516;2023-04-03T14:32:15;16.80;38.30
72905;DHT22;61048;52.162;4.516;2023-04-03T14:34:43;16.80;37.90
72905;DHT22;61048;52.162;4.516;2023-04-03T14:37:12;16.80;37.80
72905;DHT22;61048;52.162;4.516;2023-04-03T14:39:39;16.80;38.10
72905;DHT22;61048;52.162;4.516;2023-04-03T14:42:14;16.80;38.10
72905;DHT22;61048;52.162;4.516;2023-04-03T14:44:42;16.80;37.90
72905;DHT22;61048;52.162;4.516;2023-04-03T14:47:11;16.90;38.00
72905;DHT22;61048;52.162;4.516;2023-04-03T14:49:38;16.90;38.00
72905;DHT22;61048;52.162;4.516;2023-04-03T14:52:05;16.90;37.90
72905;DHT22;61048;52.162;4.516;2023-04-03T14:54:32;16.90;38.00
72905;DHT22;61048;52.162;4.516;2023-04-03T14:57:00;16.90;37.90
72905;DHT22;61048;52.162;4.516;2023-04-03T14:59:29;16.90;37.80
72905;DHT22;61048;52.162;4.516;2023-04-03T15:01:57;16.90;37.90
72905;DHT22;61048;52.162;4.516;2023-04-03T15:04:24;17.00;37.90
72905;DHT22;61048;52.162;4.516;2023-04-03T15:06:51;17.00;37.90
72905;DHT22;61048;52.162;4.516;2023-04-03T15:09:20;17.10;37.80
72905;DHT22;61048;52.162;4.516;2023-04-03T15:11:48;17.20;38.10
72905;DHT22;61048;52.162;4.516;2023-04-03T15:14:15;17.20;37.70
72905;DHT22;61048;52.162;4.516;2023-04-03T15:16:43;17.30;37.50
72905;DHT22;61048;52.162;4.516;2023-04-03T15:19:10;17.30;37.30
72905;DHT22;61048;52.162;4.516;2023-04-03T15:21:38;17.40;37.10
72905;DHT22;61048;52.162;4.516;2023-04-03T15:24:06;17.50;37.20
72905;DHT22;61048;52.162;4.516;2023-04-03T15:26:33;17.90;36.80
72905;DHT22;61048;52.162;4.516;2023-04-03T15:29:00;17.90;36.50
72905;DHT22;61048;52.162;4.516;2023-04-03T15:31:27;17.80;36.50
72905;DHT22;61048;52.162;4.516;2023-04-03T15:33:56;17.60;36.60
72905;DHT22;61048;52.162;4.516;2023-04-03T15:36:22;17.50;36.80
72905;DHT22;61048;52.162;4.516;2023-04-03T15:38:49;17.40;36.80
72905;DHT22;61048;52.162;4.516;2023-04-03T15:41:16;17.30;36.90
72905;DHT22;61048;52.162;4.516;2023-04-03T15:43:43;17.30;37.00
72905;DHT22;61048;52.162;4.516;2023-04-03T15:46:10;17.30;37.00
72905;DHT22;61048;52.162;4.516;2023-04-03T15:48:39;17.30;36.10
72905;DHT22;61048;52.162;4.516;2023-04-03T15:51:07;17.30;37.00
72905;DHT22;61048;52.162;4.516;2023-04-03T15:53:34;17.40;36.90
72905;DHT22;61048;52.162;4.516;2023-04-03T15:56:01;17.40;36.80
72905;DHT22;61048;52.162;4.516;2023-04-03T15:58:28;17.40;37.00